Time;durP1;ratioP1;P1;durP2;ratioP2;P2;SDS_P1;SDS_P2;PMS_P1;PMS_P2;Temp;Humidity;BMP_temperature;BMP_pressure;BME280_temperature;BME280_humidity;BME280_pressure;Samples;Min_cycle;Max_cycle;Signal;HPM_P1;HPM_P2
2022/09/14 00:00:15;;;;;;;4.73;3.27;;;24.00;86.60;;;;;;5082896;28;20455;-75
2022/09/14 00:02:46;;;;;;;4.67;3.20;;;24.10;87.30;;;;;;5084617;28;20456;-76
2022/09/14 00:05:18;;;;;;;3.30;3.00;;;24.00;86.20;;;;;;5089702;28;20443;-73
2022/09/14 00:07:50;;;;;;;2.97;2.77;;;24.10;84.20;;;;;;5091513;28;20451;-75
2022/09/14 00:10:22;;;;;;;4.10;3.10;;;23.90;84.10;;;;;;5080239;28;20455;-76
2022/09/14 00:12:52;;;;;;;5.07;3.37;;;23.90;84.80;;;;;;5083045;28;20444;-73
2022/09/14 00:15:24;;;;;;;4.20;3.57;;;23.70;86.60;;;;;;5079389;28;20469;-74
2022/09/14 00:17:55;;;;;;;3.17;2.87;;;23.60;85.50;;;;;;5087504;28;20474;-74
2022/09/14 00:20:26;;;;;;;3.27;2.87;;;23.50;87.50;;;;;;5103848;28;20802;-72
2022/09/14 00:22:58;;;;;;;5.23;3.63;;;23.60;86.40;;;;;;5102589;28;20479;-73
2022/09/14 00:25:30;;;;;;;4.17;3.10;;;23.60;87.20;;;;;;5091186;28;20466;-75
2022/09/14 00:28:00;;;;;;;3.43;3.13;;;23.50;87.80;;;;;;5102894;28;20499;-75
2022/09/14 00:30:31;;;;;;;4.10;3.60;;;23.30;88.50;;;;;;5106280;28;20523;-75
2022/09/14 00:33:02;;;;;;;3.57;3.00;;;23.30;89.00;;;;;;5104535;28;20450;-75
2022/09/14 00:35:37;;;;;;;3.83;3.10;;;23.20;89.20;;;;;;5108144;28;20485;-72
2022/09/14 00:38:09;;;;;;;4.03;3.20;;;23.20;90.20;;;;;;5120587;28;20453;-73
2022/09/14 00:40:40;;;;;;;3.53;3.23;;;23.10;90.70;;;;;;5109065;28;20470;-74
2022/09/14 00:43:15;;;;;;;4.67;3.83;;;23.20;90.10;;;;;;5102863;28;20450;-74
2022/09/14 00:45:46;;;;;;;4.60;3.10;;;23.10;90.50;;;;;;5107826;28;20930;-75
2022/09/14 00:48:17;;;;;;;3.50;3.20;;;22.90;88.90;;;;;;5113394;28;20521;-74
2022/09/14 00:50:48;;;;;;;4.63;2.80;;;23.00;88.40;;;;;;5118816;28;20450;-74
2022/09/14 00:53:20;;;;;;;4.93;2.20;;;22.90;88.30;;;;;;5106010;28;20620;-75
2022/09/14 00:55:53;;;;;;;4.07;3.00;;;22.80;87.00;;;;;;5109280;28;20495;-74
2022/09/14 00:58:23;;;;;;;3.13;2.83;;;22.60;88.00;;;;;;5108728;28;20458;-74
2022/09/14 01:00:54;;;;;;;2.63;2.43;;;22.60;88.10;;;;;;5104895;28;20991;-75
2022/09/14 01:03:25;;;;;;;3.13;2.60;;;22.60;88.20;;;;;;5106061;28;20455;-72
2022/09/14 01:06:05;;;;;;;2.70;2.40;;;22.70;88.50;;;;;;5102785;28;20488;-76
2022/09/14 01:09:00;;;;;;;2.93;2.73;;;22.80;87.60;;;;;;5106853;28;20518;-74
2022/09/14 01:12:12;;;;;;;2.40;2.20;;;22.60;88.40;;;;;;5106099;28;20513;-77
2022/09/14 01:14:50;;;;;;;5.50;2.80;;;22.50;88.40;;;;;;5104672;28;20562;-76
2022/09/14 01:17:28;;;;;;;4.67;2.67;;;22.40;90.00;;;;;;5108201;28;20450;-79
2022/09/14 01:20:21;;;;;;;5.00;2.37;;;22.40;88.30;;;;;;5103889;28;22373;-72
2022/09/14 01:23:02;;;;;;;3.93;3.00;;;22.30;89.00;;;;;;5102826;28;20462;-77
2022/09/14 01:26:06;;;;;;;2.70;2.50;;;22.30;88.10;;;;;;5106343;28;20451;-75
2022/09/14 01:28:44;;;;;;;3.93;2.77;;;22.20;88.10;;;;;;5097023;28;20445;-73
2022/09/14 01:31:20;;;;;;;2.03;1.93;;;22.20;87.10;;;;;;5103281;28;20434;-76
2022/09/14 01:34:00;;;;;;;3.77;2.63;;;22.20;84.90;;;;;;5110029;28;20469;-76
2022/09/14 01:36:34;;;;;;;2.73;2.53;;;22.20;84.80;;;;;;5097771;28;20526;-71
2022/09/14 01:39:06;;;;;;;2.87;2.53;;;22.00;86.20;;;;;;5103465;28;22631;-76
2022/09/14 01:41:41;;;;;;;3.33;2.67;;;21.90;87.90;;;;;;5109794;27;20474;-76
2022/09/14 01:44:18;;;;;;;3.20;2.13;;;21.80;88.10;;;;;;5110791;28;20450;-73
2022/09/14 01:46:54;;;;;;;6.63;2.23;;;21.80;88.20;;;;;;5102471;28;20538;-77
2022/09/14 01:49:31;;;;;;;2.23;2.03;;;21.70;88.10;;;;;;5086232;28;20455;-74
2022/09/14 01:52:05;;;;;;;2.90;2.40;;;21.70;88.20;;;;;;5092549;28;20463;-72
2022/09/14 01:54:42;;;;;;;2.23;2.03;;;21.60;89.60;;;;;;5083685;28;20459;-70
2022/09/14 01:57:17;;;;;;;3.67;2.13;;;21.60;89.30;;;;;;5091505;28;20458;-75
2022/09/14 01:59:53;;;;;;;2.20;2.00;;;21.50;90.20;;;;;;5113530;28;20545;-78
2022/09/14 02:02:28;;;;;;;2.20;1.97;;;21.40;90.90;;;;;;5099272;28;20454;-77
2022/09/14 02:05:04;;;;;;;3.33;2.73;;;21.30;92.00;;;;;;5107090;28;20488;-72
2022/09/14 02:07:36;;;;;;;2.30;2.10;;;21.20;91.50;;;;;;5092778;28;20455;-79
2022/09/14 02:10:10;;;;;;;3.27;2.53;;;21.10;91.70;;;;;;5105354;28;20522;-79
2022/09/14 02:12:42;;;;;;;2.80;2.20;;;21.20;91.60;;;;;;5109838;28;20456;-76
2022/09/14 02:15:16;;;;;;;3.00;2.43;;;21.00;92.20;;;;;;5088883;28;20552;-77
2022/09/14 02:17:48;;;;;;;2.97;2.70;;;20.90;93.20;;;;;;5092993;28;20481;-76
2022/09/14 02:20:24;;;;;;;4.17;2.60;;;20.90;93.40;;;;;;5109593;28;20549;-73
2022/09/14 02:22:55;;;;;;;3.10;2.70;;;20.90;93.10;;;;;;5118014;28;20424;-74
2022/09/14 02:25:26;;;;;;;4.67;2.57;;;20.90;93.10;;;;;;5101835;28;20556;-77
2022/09/14 02:27:57;;;;;;;3.53;2.40;;;20.80;93.50;;;;;;5109922;28;20565;-75
2022/09/14 02:30:32;;;;;;;2.53;2.33;;;20.80;93.80;;;;;;5106308;28;20466;-74
2022/09/14 02:33:11;;;;;;;4.20;2.83;;;20.70;94.40;;;;;;5085565;28;21300;-77
2022/09/14 02:35:48;;;;;;;4.67;2.80;;;20.60;95.00;;;;;;5099633;28;21016;-80
2022/09/14 02:38:26;;;;;;;3.10;2.60;;;20.50;95.00;;;;;;5110522;28;20450;-77
2022/09/14 02:41:02;;;;;;;3.23;2.70;;;20.50;95.30;;;;;;5102515;28;20957;-76
2022/09/14 02:43:42;;;;;;;2.97;2.33;;;20.50;95.60;;;;;;5114241;28;20534;-77
2022/09/14 02:46:22;;;;;;;2.97;2.50;;;20.40;96.30;;;;;;5103762;28;20511;-73
2022/09/14 02:48:58;;;;;;;4.47;3.27;;;20.50;96.00;;;;;;5107262;28;20439;-81
2022/09/14 02:51:34;;;;;;;3.73;3.30;;;20.30;96.60;;;;;;5122765;28;20592;-78
2022/09/14 02:54:09;;;;;;;4.63;3.23;;;20.30;96.90;;;;;;5110136;28;20977;-71
2022/09/14 02:56:40;;;;;;;5.80;2.63;;;20.20;97.50;;;;;;5105551;28;20441;-77
2022/09/14 02:59:11;;;;;;;4.33;2.77;;;20.20;97.90;;;;;;5118842;28;20433;-71
2022/09/14 03:01:44;;;;;;;3.00;2.53;;;20.10;98.50;;;;;;5111643;28;20450;-79
2022/09/14 03:04:16;;;;;;;4.80;2.83;;;20.10;98.90;;;;;;5112911;28;20480;-78
2022/09/14 03:06:46;;;;;;;3.83;3.13;;;20.10;98.80;;;;;;5107314;28;20496;-77
2022/09/14 03:09:17;;;;;;;2.70;2.50;;;20.10;99.20;;;;;;5111676;28;20431;-78
2022/09/14 03:11:48;;;;;;;3.93;3.53;;;20.10;99.10;;;;;;5113310;28;20429;-82
2022/09/14 03:14:19;;;;;;;4.73;3.03;;;20.10;99.60;;;;;;5110018;28;20466;-77
2022/09/14 03:16:52;;;;;;;3.23;2.93;;;20.10;99.80;;;;;;5110015;28;20446;-78
2022/09/14 03:19:22;;;;;;;2.60;2.40;;;20.10;99.90;;;;;;5104711;28;20485;-74
2022/09/14 03:21:53;;;;;;;3.47;3.00;;;20.10;99.90;;;;;;5107636;28;20450;-79
2022/09/14 03:24:24;;;;;;;6.20;3.60;;;20.00;99.90;;;;;;5107662;28;20557;-78
2022/09/14 03:26:55;;;;;;;3.13;2.93;;;19.90;99.90;;;;;;5108390;28;20450;-78
2022/09/14 03:29:28;;;;;;;4.50;4.00;;;19.90;99.90;;;;;;5106471;28;20450;-77
2022/09/14 03:32:01;;;;;;;3.73;3.13;;;19.90;99.90;;;;;;5102770;28;20529;-78
2022/09/14 03:34:32;;;;;;;4.57;3.00;;;19.90;99.90;;;;;;5103168;28;20531;-76
2022/09/14 03:37:06;;;;;;;5.30;3.03;;;19.90;99.90;;;;;;5107869;28;20429;-78
2022/09/14 03:39:37;;;;;;;2.90;2.63;;;19.90;99.90;;;;;;5110597;28;20455;-76
2022/09/14 03:42:08;;;;;;;3.77;2.83;;;19.90;99.90;;;;;;5104739;28;20459;-75
2022/09/14 03:44:39;;;;;;;3.90;3.13;;;19.90;99.90;;;;;;5097240;28;20418;-74
2022/09/14 03:47:11;;;;;;;5.20;3.37;;;19.80;99.90;;;;;;5120887;28;20450;-76
2022/09/14 03:49:42;;;;;;;3.93;3.50;;;19.80;99.90;;;;;;5106951;28;20949;-77
2022/09/14 03:52:13;;;;;;;3.50;3.10;;;19.80;99.90;;;;;;5124745;28;20432;-76
2022/09/14 03:54:43;;;;;;;3.60;3.03;;;19.90;99.90;;;;;;5112653;28;20483;-79
2022/09/14 03:57:14;;;;;;;5.73;3.13;;;19.80;99.90;;;;;;5104090;28;20503;-74
2022/09/14 03:59:45;;;;;;;3.70;3.20;;;19.80;99.90;;;;;;5115448;28;20488;-76
2022/09/14 04:02:17;;;;;;;4.77;3.43;;;19.80;99.90;;;;;;5115965;28;20831;-74
2022/09/14 04:04:48;;;;;;;2.80;2.53;;;19.80;99.90;;;;;;5103402;28;20470;-73
2022/09/14 04:07:19;;;;;;;3.53;3.20;;;19.70;99.90;;;;;;5108796;27;20458;-76
2022/09/14 04:09:50;;;;;;;4.90;3.17;;;19.60;99.90;;;;;;5107962;28;20446;-73
2022/09/14 04:12:21;;;;;;;4.53;3.47;;;19.60;99.90;;;;;;5112433;28;20517;-76
2022/09/14 04:14:52;;;;;;;4.00;3.10;;;19.60;99.90;;;;;;5124984;28;20453;-76
2022/09/14 04:17:24;;;;;;;3.73;3.33;;;19.60;99.90;;;;;;5093890;28;20439;-77
2022/09/14 04:19:55;;;;;;;3.10;2.80;;;19.60;99.90;;;;;;5077013;28;20438;-76
2022/09/14 04:22:26;;;;;;;3.53;3.17;;;19.60;99.90;;;;;;5082776;28;20922;-77
2022/09/14 04:24:57;;;;;;;4.07;3.67;;;19.50;99.90;;;;;;5080932;28;20466;-77
2022/09/14 04:27:27;;;;;;;3.50;3.10;;;19.50;99.90;;;;;;5098902;28;20475;-76
2022/09/14 04:29:59;;;;;;;4.43;3.20;;;19.50;99.90;;;;;;5104417;28;20468;-77
2022/09/14 04:32:32;;;;;;;4.00;3.43;;;19.50;99.90;;;;;;5103838;28;20436;-77
2022/09/14 04:35:06;;;;;;;3.07;2.70;;;19.40;99.90;;;;;;5103805;28;20443;-76
2022/09/14 04:37:37;;;;;;;2.73;2.50;;;19.40;99.90;;;;;;5102947;28;20427;-78
2022/09/14 04:40:09;;;;;;;2.70;2.50;;;19.40;99.90;;;;;;5078600;28;20461;-77
2022/09/14 04:42:41;;;;;;;4.60;3.30;;;19.40;99.90;;;;;;5091129;28;20464;-78
2022/09/14 04:45:13;;;;;;;4.10;3.03;;;19.30;99.90;;;;;;5083077;28;20426;-79
2022/09/14 04:47:46;;;;;;;6.93;4.17;;;19.40;99.90;;;;;;5083307;28;20450;-77
2022/09/14 04:50:17;;;;;;;3.90;3.43;;;19.30;99.90;;;;;;5077830;28;20549;-76
2022/09/14 04:52:48;;;;;;;5.97;3.40;;;19.30;99.90;;;;;;5082300;28;20528;-77
2022/09/14 04:55:18;;;;;;;4.17;3.43;;;19.30;99.90;;;;;;5082267;28;20534;-78
2022/09/14 04:57:49;;;;;;;3.80;2.83;;;19.20;99.90;;;;;;5080545;28;20449;-78
2022/09/14 05:00:21;;;;;;;6.23;3.00;;;19.30;99.90;;;;;;5078637;28;20460;-78
2022/09/14 05:02:56;;;;;;;3.20;2.90;;;19.20;99.90;;;;;;5073969;28;20463;-79
2022/09/14 05:05:27;;;;;;;3.67;3.20;;;19.20;99.90;;;;;;5081064;28;20459;-78
2022/09/14 05:07:59;;;;;;;3.50;2.90;;;19.10;99.90;;;;;;5082071;28;20466;-78
2022/09/14 05:10:30;;;;;;;3.13;2.80;;;19.10;99.90;;;;;;5079867;28;20467;-76
2022/09/14 05:13:00;;;;;;;3.90;3.40;;;19.00;99.90;;;;;;5080153;28;20531;-78
2022/09/14 05:15:31;;;;;;;4.47;2.33;;;19.10;99.90;;;;;;5078522;28;20446;-76
2022/09/14 05:18:04;;;;;;;4.33;2.67;;;19.10;99.90;;;;;;5084982;28;20568;-77
2022/09/14 05:20:36;;;;;;;4.07;2.90;;;19.10;99.90;;;;;;5103531;28;20534;-77
2022/09/14 05:23:08;;;;;;;4.80;2.73;;;19.10;99.90;;;;;;5109788;28;20482;-77
2022/09/14 05:25:38;;;;;;;5.03;3.30;;;19.10;99.90;;;;;;5106283;28;20429;-77
2022/09/14 05:28:10;;;;;;;4.43;2.77;;;19.10;99.90;;;;;;5100491;28;20429;-77
2022/09/14 05:30:41;;;;;;;3.30;2.70;;;19.10;99.90;;;;;;5102711;28;20465;-77
2022/09/14 05:33:14;;;;;;;4.73;2.37;;;19.10;99.90;;;;;;5102471;28;20482;-75
2022/09/14 05:35:45;;;;;;;3.90;2.80;;;19.10;99.90;;;;;;5101765;28;20532;-75
2022/09/14 05:38:16;;;;;;;3.13;2.57;;;19.10;99.90;;;;;;5104982;28;20433;-76
2022/09/14 05:40:47;;;;;;;3.80;2.67;;;19.10;99.90;;;;;;5109883;28;20441;-76
2022/09/14 05:43:19;;;;;;;4.07;3.20;;;19.10;99.90;;;;;;5101973;28;20437;-76
2022/09/14 05:45:49;;;;;;;2.53;2.33;;;19.00;99.90;;;;;;5096617;28;20459;-76
2022/09/14 05:48:22;;;;;;;4.33;2.80;;;19.00;99.90;;;;;;5104569;28;20466;-75
2022/09/14 05:51:00;;;;;;;2.93;2.60;;;19.00;99.90;;;;;;5098273;28;20447;-75
2022/09/14 05:53:31;;;;;;;3.17;2.87;;;19.00;99.90;;;;;;5102789;28;20519;-75
2022/09/14 05:56:03;;;;;;;2.90;2.63;;;19.00;99.90;;;;;;5103080;28;20470;-76
2022/09/14 05:58:35;;;;;;;3.67;2.90;;;19.00;99.90;;;;;;5097113;28;20754;-75
2022/09/14 06:01:10;;;;;;;3.70;2.70;;;19.00;99.90;;;;;;5108908;28;20500;-75
2022/09/14 06:03:43;;;;;;;3.20;2.90;;;19.00;99.90;;;;;;5105035;28;20488;-76
2022/09/14 06:06:15;;;;;;;4.43;2.80;;;19.00;99.90;;;;;;5103567;28;20421;-74
2022/09/14 06:08:49;;;;;;;3.40;3.10;;;19.00;99.90;;;;;;5118255;28;20435;-75
2022/09/14 06:11:21;;;;;;;3.63;3.33;;;19.10;99.90;;;;;;5101781;28;20433;-76
2022/09/14 06:13:53;;;;;;;2.90;2.53;;;19.00;99.90;;;;;;5107473;28;20480;-75
2022/09/14 06:16:26;;;;;;;3.27;2.97;;;19.00;99.90;;;;;;5100847;28;20451;-77
2022/09/14 06:19:00;;;;;;;3.67;3.03;;;19.00;99.90;;;;;;5106797;28;20496;-76
2022/09/14 06:21:32;;;;;;;4.83;2.97;;;19.00;99.90;;;;;;5100890;28;20585;-76
2022/09/14 06:24:04;;;;;;;3.70;2.90;;;19.00;99.90;;;;;;5108987;28;20463;-75
2022/09/14 06:26:35;;;;;;;2.30;2.10;;;18.90;99.90;;;;;;5100933;28;20830;-76
2022/09/14 06:29:06;;;;;;;3.20;2.60;;;18.90;99.90;;;;;;5103076;28;20429;-75
2022/09/14 06:31:37;;;;;;;2.57;2.27;;;18.90;99.90;;;;;;5098449;28;20452;-75
2022/09/14 06:34:09;;;;;;;3.97;3.03;;;18.90;99.90;;;;;;5108303;28;20487;-75
2022/09/14 06:36:40;;;;;;;3.80;3.13;;;18.90;99.90;;;;;;5116259;28;20462;-75
2022/09/14 06:39:11;;;;;;;3.90;2.77;;;18.90;99.90;;;;;;5109533;28;20482;-75
2022/09/14 06:41:42;;;;;;;3.50;2.40;;;18.90;99.90;;;;;;5099620;28;20469;-75
2022/09/14 06:44:13;;;;;;;3.17;2.80;;;18.90;99.90;;;;;;5104940;28;20458;-75
2022/09/14 06:46:43;;;;;;;3.80;2.83;;;18.80;99.90;;;;;;5104330;28;20466;-76
2022/09/14 06:49:21;;;;;;;3.00;2.37;;;18.80;99.90;;;;;;5102845;28;20526;-76
2022/09/14 06:51:54;;;;;;;3.20;2.90;;;18.80;99.90;;;;;;5101061;28;20493;-75
2022/09/14 06:54:25;;;;;;;3.03;2.63;;;18.80;99.90;;;;;;5105538;28;21268;-76
2022/09/14 06:56:57;;;;;;;3.40;2.67;;;18.80;99.90;;;;;;5100849;28;20511;-75
2022/09/14 06:59:28;;;;;;;4.93;2.70;;;18.70;99.90;;;;;;5103399;28;20528;-76
2022/09/14 07:01:58;;;;;;;3.23;2.93;;;18.70;99.90;;;;;;5099594;28;20482;-75
2022/09/14 07:04:31;;;;;;;3.90;2.47;;;18.70;99.90;;;;;;5104097;28;20937;-77
2022/09/14 07:07:02;;;;;;;3.00;2.70;;;18.80;99.90;;;;;;5100115;28;20445;-76
2022/09/14 07:09:32;;;;;;;3.27;2.60;;;18.70;99.90;;;;;;5101659;28;20433;-75
2022/09/14 07:12:04;;;;;;;3.60;2.70;;;18.80;99.90;;;;;;5099718;28;20437;-74
2022/09/14 07:14:35;;;;;;;4.13;2.57;;;18.80;99.90;;;;;;5101842;28;20531;-76
2022/09/14 07:17:06;;;;;;;2.57;2.37;;;18.60;99.90;;;;;;5114334;28;20518;-77
2022/09/14 07:19:38;;;;;;;2.93;2.10;;;18.60;99.90;;;;;;5103937;28;20828;-75
2022/09/14 07:22:09;;;;;;;2.97;2.60;;;18.60;99.90;;;;;;5100161;28;20856;-76
2022/09/14 07:24:40;;;;;;;4.70;3.07;;;18.60;99.90;;;;;;5102827;28;21513;-75
2022/09/14 07:27:10;;;;;;;3.77;3.03;;;18.60;99.90;;;;;;5100817;28;20507;-76
2022/09/14 07:29:41;;;;;;;3.30;2.90;;;18.60;99.90;;;;;;5100891;28;20470;-76
2022/09/14 07:32:12;;;;;;;3.50;2.63;;;18.60;99.90;;;;;;5111188;28;20444;-76
2022/09/14 07:34:44;;;;;;;3.00;2.70;;;18.60;99.90;;;;;;5108552;28;20463;-77
2022/09/14 07:37:15;;;;;;;2.70;2.23;;;18.50;99.90;;;;;;5104457;28;20458;-76
2022/09/14 07:39:46;;;;;;;3.87;2.50;;;18.50;99.90;;;;;;5110317;28;20484;-75
2022/09/14 07:42:17;;;;;;;2.80;2.50;;;18.50;99.90;;;;;;5105102;28;20560;-76
2022/09/14 07:44:48;;;;;;;6.27;3.60;;;18.50;99.90;;;;;;5105543;28;20450;-75
2022/09/14 07:47:19;;;;;;;3.37;2.53;;;18.50;99.90;;;;;;5103817;28;20522;-76
2022/09/14 07:49:51;;;;;;;3.37;2.57;;;18.50;99.90;;;;;;5103393;28;20506;-75
2022/09/14 07:52:22;;;;;;;3.57;2.53;;;18.50;99.90;;;;;;5102924;28;20966;-75
2022/09/14 07:54:52;;;;;;;3.13;2.90;;;18.50;99.90;;;;;;5106249;28;20517;-76
2022/09/14 07:57:23;;;;;;;4.40;3.17;;;18.40;99.90;;;;;;5103969;28;20441;-75
2022/09/14 08:00:15;;;;;;;4.20;3.53;;;18.40;99.90;;;;;;5102673;28;20436;-75
2022/09/14 08:02:51;;;;;;;3.50;3.20;;;18.30;99.90;;;;;;5104481;28;20465;-75
2022/09/14 08:05:24;;;;;;;3.07;2.73;;;18.40;99.90;;;;;;5104080;28;20440;-75
2022/09/14 08:07:56;;;;;;;3.53;3.23;;;18.40;99.90;;;;;;5103910;28;20455;-75
2022/09/14 08:10:27;;;;;;;5.63;3.40;;;18.40;99.90;;;;;;5089983;28;20432;-75
2022/09/14 08:12:58;;;;;;;3.80;3.00;;;18.40;99.90;;;;;;5118512;28;20503;-75
2022/09/14 08:15:30;;;;;;;2.77;2.57;;;18.40;99.90;;;;;;5107731;28;20455;-75
2022/09/14 08:18:01;;;;;;;3.30;2.50;;;18.40;99.90;;;;;;5108137;28;20551;-74
2022/09/14 08:20:34;;;;;;;2.87;2.57;;;18.40;99.90;;;;;;5098754;28;20460;-75
2022/09/14 08:23:05;;;;;;;3.57;2.80;;;18.40;99.90;;;;;;5103645;28;20482;-74
2022/09/14 08:25:36;;;;;;;3.27;2.70;;;18.30;99.90;;;;;;5102930;28;20455;-75
2022/09/14 08:28:06;;;;;;;3.90;2.90;;;18.30;99.90;;;;;;5103957;28;20459;-74
2022/09/14 08:30:37;;;;;;;3.10;2.60;;;18.40;99.90;;;;;;5102906;28;20462;-75
2022/09/14 08:33:08;;;;;;;2.53;2.33;;;18.30;99.90;;;;;;5110842;28;20444;-74
2022/09/14 08:35:45;;;;;;;3.30;2.33;;;18.40;99.90;;;;;;5109200;28;20458;-75
2022/09/14 08:38:27;;;;;;;3.57;2.87;;;18.40;99.90;;;;;;5114854;28;20432;-73
2022/09/14 08:40:59;;;;;;;2.63;2.40;;;18.40;99.90;;;;;;5105570;28;20433;-75
2022/09/14 08:43:30;;;;;;;3.00;2.13;;;18.30;99.90;;;;;;5100934;28;20464;-75
2022/09/14 08:46:05;;;;;;;3.30;3.00;;;18.30;99.90;;;;;;5115180;28;20458;-75
2022/09/14 08:48:39;;;;;;;3.23;2.57;;;18.30;99.90;;;;;;5102238;28;20464;-75
2022/09/14 08:51:12;;;;;;;3.40;3.10;;;18.20;99.90;;;;;;5109011;28;20431;-75
2022/09/14 08:53:43;;;;;;;4.10;3.07;;;18.20;99.90;;;;;;5101909;28;20437;-75
2022/09/14 08:56:18;;;;;;;3.27;2.97;;;18.20;99.90;;;;;;5104109;28;20446;-76
2022/09/14 08:59:18;;;;;;;3.20;2.90;;;18.20;99.90;;;;;;5114015;28;20803;-75
2022/09/14 09:02:01;;;;;;;3.13;2.03;;;18.20;99.90;;;;;;5107171;28;20455;-75
2022/09/14 09:04:46;;;;;;;3.50;3.20;;;18.20;99.90;;;;;;5091894;28;20482;-75
2022/09/14 09:07:30;;;;;;;2.83;2.57;;;18.20;99.90;;;;;;5109264;28;20488;-75
2022/09/14 09:10:03;;;;;;;3.00;2.70;;;18.20;99.90;;;;;;5104183;28;20483;-76
2022/09/14 09:12:37;;;;;;;4.47;3.40;;;18.20;99.90;;;;;;5102710;28;20474;-76
2022/09/14 09:15:18;;;;;;;2.93;2.63;;;18.20;99.90;;;;;;5111003;28;20482;-75
2022/09/14 09:17:54;;;;;;;3.97;3.30;;;18.20;99.90;;;;;;5102419;28;20965;-76
2022/09/14 09:20:29;;;;;;;4.10;3.03;;;18.20;99.90;;;;;;5101983;28;20436;-76
2022/09/14 09:23:11;;;;;;;3.33;2.80;;;18.20;99.90;;;;;;5103032;28;20504;-76
2022/09/14 09:25:52;;;;;;;2.80;2.37;;;18.10;99.90;;;;;;5117499;28;20440;-76
2022/09/14 09:28:25;;;;;;;4.10;2.63;;;18.10;99.90;;;;;;5109066;28;20515;-75
2022/09/14 09:30:58;;;;;;;3.37;2.50;;;18.10;99.90;;;;;;5102977;28;20507;-75
2022/09/14 09:33:29;;;;;;;3.30;2.80;;;18.10;99.90;;;;;;5101489;28;20438;-76
2022/09/14 09:36:01;;;;;;;3.17;2.87;;;18.10;99.90;;;;;;5116883;28;20621;-76
2022/09/14 09:38:33;;;;;;;3.50;3.20;;;18.00;99.90;;;;;;5106374;28;20534;-76
2022/09/14 09:41:12;;;;;;;3.70;2.90;;;18.10;99.90;;;;;;5117195;28;20454;-77
2022/09/14 09:43:59;;;;;;;3.10;2.47;;;18.10;99.90;;;;;;5089090;28;20498;-76
2022/09/14 09:46:32;;;;;;;2.70;2.37;;;18.10;99.90;;;;;;5095476;28;20464;-76
2022/09/14 09:49:05;;;;;;;3.23;2.93;;;18.10;99.90;;;;;;5097171;28;20463;-76
2022/09/14 09:51:36;;;;;;;2.43;2.23;;;18.00;99.90;;;;;;5102114;28;20563;-76
2022/09/14 09:54:19;;;;;;;3.80;2.50;;;18.00;99.90;;;;;;5103731;28;20432;-76
2022/09/14 09:56:54;;;;;;;4.00;2.57;;;18.00;99.90;;;;;;5100973;28;20590;-76
2022/09/14 09:59:34;;;;;;;3.90;3.10;;;18.10;99.90;;;;;;5106167;28;20458;-75
2022/09/14 10:02:24;;;;;;;3.90;2.60;;;18.00;99.90;;;;;;5108467;28;20458;-76
2022/09/14 10:05:00;;;;;;;3.90;3.00;;;17.90;99.90;;;;;;5100324;28;20486;-75
2022/09/14 10:07:32;;;;;;;2.97;2.47;;;17.90;99.90;;;;;;5116985;28;20950;-75
2022/09/14 10:10:09;;;;;;;3.97;2.80;;;17.90;99.90;;;;;;5102309;28;20502;-76
2022/09/14 10:12:47;;;;;;;3.80;2.80;;;17.90;99.90;;;;;;5094126;28;20533;-74
2022/09/14 10:15:21;;;;;;;3.23;2.93;;;18.00;99.90;;;;;;5104062;28;20442;-74
2022/09/14 10:18:07;;;;;;;3.07;2.77;;;18.00;99.90;;;;;;5100882;28;20468;-75
2022/09/14 10:20:39;;;;;;;6.00;2.90;;;18.00;99.90;;;;;;5102731;28;20429;-76
2022/09/14 10:23:27;;;;;;;2.50;2.10;;;18.00;99.90;;;;;;5098740;28;20977;-75
2022/09/14 10:26:33;;;;;;;3.37;2.60;;;18.00;99.90;;;;;;5102881;28;20538;-74
2022/09/14 10:29:40;;;;;;;3.10;2.63;;;18.00;99.90;;;;;;5100488;28;20490;-75
2022/09/14 10:32:21;;;;;;;3.80;3.40;;;18.00;99.90;;;;;;5102960;28;21300;-74
2022/09/14 10:34:52;;;;;;;2.83;2.57;;;17.90;99.90;;;;;;5100908;28;20485;-74
2022/09/14 10:37:32;;;;;;;4.20;2.73;;;18.00;99.90;;;;;;5108229;28;20508;-74
2022/09/14 10:40:15;;;;;;;3.93;3.40;;;17.90;99.90;;;;;;5096100;28;20476;-75
2022/09/14 10:42:57;;;;;;;3.83;2.83;;;17.90;99.90;;;;;;5103214;28;20598;-76
2022/09/14 10:45:32;;;;;;;4.03;3.57;;;17.90;99.90;;;;;;5116216;28;20463;-76
2022/09/14 10:48:18;;;;;;;6.40;3.67;;;18.00;99.90;;;;;;5103635;28;20458;-75
2022/09/14 10:50:58;;;;;;;3.40;3.07;;;18.00;99.90;;;;;;5095486;28;20574;-75
2022/09/14 10:53:46;;;;;;;4.37;3.27;;;18.00;99.90;;;;;;5100063;28;20516;-75
2022/09/14 10:56:20;;;;;;;3.80;2.80;;;18.00;99.90;;;;;;5103087;28;20463;-75
2022/09/14 10:59:14;;;;;;;2.73;2.53;;;17.90;99.90;;;;;;5116150;28;20537;-75
2022/09/14 11:02:04;;;;;;;3.47;3.17;;;17.90;99.90;;;;;;5107489;28;20432;-75
2022/09/14 11:05:07;;;;;;;4.23;3.17;;;17.90;99.90;;;;;;5105314;28;20585;-75
2022/09/14 11:07:51;;;;;;;4.53;3.33;;;17.90;99.90;;;;;;5099870;28;20450;-74
2022/09/14 11:10:28;;;;;;;3.43;3.10;;;17.90;99.90;;;;;;5104091;28;20471;-74
2022/09/14 11:13:23;;;;;;;4.63;2.73;;;17.80;99.90;;;;;;5105565;28;20462;-75
2022/09/14 11:16:01;;;;;;;3.07;2.27;;;17.80;99.90;;;;;;5110108;28;20436;-75
2022/09/14 11:18:41;;;;;;;4.43;3.23;;;17.80;99.90;;;;;;5108166;28;20493;-75
2022/09/14 11:21:21;;;;;;;3.37;2.33;;;17.80;99.90;;;;;;5105236;28;20847;-75
2022/09/14 11:23:56;;;;;;;3.20;2.63;;;17.80;99.90;;;;;;5107640;28;20463;-75
2022/09/14 11:26:32;;;;;;;7.00;3.03;;;17.70;99.90;;;;;;5124574;28;20437;-74
2022/09/14 11:29:12;;;;;;;3.70;3.40;;;17.70;99.90;;;;;;5110263;28;20429;-74
2022/09/14 11:31:50;;;;;;;3.80;3.20;;;17.70;99.90;;;;;;5102196;28;20433;-75
2022/09/14 11:34:46;;;;;;;3.90;3.27;;;17.70;99.90;;;;;;5106181;28;20464;-74
2022/09/14 11:37:21;;;;;;;5.00;3.33;;;17.60;99.90;;;;;;5109647;28;20432;-74
2022/09/14 11:40:01;;;;;;;4.10;3.33;;;17.60;99.90;;;;;;5105145;28;20492;-75
2022/09/14 11:42:36;;;;;;;3.70;3.10;;;17.60;99.90;;;;;;5104620;28;20447;-74
2022/09/14 11:45:15;;;;;;;3.00;2.70;;;17.60;99.90;;;;;;5104559;28;20546;-74
2022/09/14 11:47:51;;;;;;;2.90;2.70;;;17.60;99.90;;;;;;5115337;28;20461;-73
2022/09/14 11:50:26;;;;;;;3.73;3.30;;;17.60;99.90;;;;;;5105275;28;20454;-73
2022/09/14 11:53:10;;;;;;;4.23;3.03;;;17.60;99.90;;;;;;5113757;28;20574;-73
2022/09/14 11:55:44;;;;;;;3.30;2.83;;;17.50;99.90;;;;;;5117548;28;20795;-74
2022/09/14 11:58:21;;;;;;;3.00;2.70;;;17.60;99.90;;;;;;5109520;28;20427;-74
2022/09/14 12:01:06;;;;;;;3.63;2.80;;;17.60;99.90;;;;;;5114626;28;20582;-74
2022/09/14 12:04:05;;;;;;;4.10;3.30;;;17.60;99.90;;;;;;5104619;28;20446;-75
2022/09/14 12:06:56;;;;;;;2.63;2.33;;;17.60;99.90;;;;;;5105057;28;20454;-75
2022/09/14 12:09:45;;;;;;;5.77;2.70;;;17.60;99.90;;;;;;5104751;28;20547;-75
2022/09/14 12:12:37;;;;;;;4.30;3.20;;;17.50;99.90;;;;;;5105863;28;20572;-75
2022/09/14 12:15:23;;;;;;;2.90;2.60;;;17.50;99.90;;;;;;5108435;28;20426;-74
2022/09/14 12:17:55;;;;;;;3.80;3.20;;;17.50;99.90;;;;;;5112556;28;20506;-75
2022/09/14 12:20:42;;;;;;;5.90;3.30;;;17.50;99.90;;;;;;5107144;28;20433;-75
2022/09/14 12:23:30;;;;;;;4.13;3.13;;;17.40;99.90;;;;;;5107840;28;20465;-75
2022/09/14 12:26:29;;;;;;;3.23;2.93;;;17.40;99.90;;;;;;5106037;28;20444;-75
2022/09/14 12:29:25;;;;;;;3.40;3.10;;;17.50;99.90;;;;;;5096473;28;20459;-75
2022/09/14 12:32:05;;;;;;;3.77;3.47;;;17.50;99.90;;;;;;5112661;28;20470;-74
2022/09/14 12:34:36;;;;;;;3.13;2.83;;;17.40;99.90;;;;;;5091218;28;20448;-75
2022/09/14 12:37:32;;;;;;;3.33;2.80;;;17.40;99.90;;;;;;5111255;28;20432;-74
2022/09/14 12:40:38;;;;;;;3.53;3.23;;;17.40;99.90;;;;;;5099745;28;20441;-75
2022/09/14 12:43:48;;;;;;;4.63;3.37;;;17.40;99.90;;;;;;5104269;28;20886;-75
2022/09/14 12:46:48;;;;;;;4.07;3.67;;;17.40;99.90;;;;;;5099439;28;20500;-74
2022/09/14 12:49:36;;;;;;;3.40;3.07;;;17.40;99.90;;;;;;5068653;28;20511;-75
2022/09/14 12:52:31;;;;;;;3.80;3.40;;;17.40;99.90;;;;;;5069367;28;20611;-74
2022/09/14 12:55:15;;;;;;;4.70;3.37;;;17.40;99.90;;;;;;5063142;28;20850;-75
2022/09/14 12:57:53;;;;;;;3.40;3.17;;;17.40;99.90;;;;;;5063371;28;20961;-76
2022/09/14 13:00:25;;;;;;;5.10;3.60;;;17.50;99.90;;;;;;5060074;28;20938;-74
2022/09/14 13:03:12;;;;;;;3.67;2.80;;;17.50;99.90;;;;;;5062261;28;20491;-76
2022/09/14 13:05:45;;;;;;;3.63;3.40;;;17.50;99.90;;;;;;5058456;28;20466;-73
2022/09/14 13:08:23;;;;;;;3.63;2.73;;;17.40;99.90;;;;;;5060496;28;20477;-74
2022/09/14 13:10:54;;;;;;;5.47;3.00;;;17.40;99.90;;;;;;5072528;28;20472;-75
2022/09/14 13:13:31;;;;;;;3.13;2.30;;;17.30;99.90;;;;;;5060851;28;20460;-73
2022/09/14 13:16:05;;;;;;;2.77;2.50;;;17.30;99.90;;;;;;5048881;28;20964;-73
2022/09/14 13:18:37;;;;;;;3.07;2.80;;;17.30;99.90;;;;;;5070060;28;20454;-74
2022/09/14 13:21:19;;;;;;;2.83;2.50;;;17.30;99.90;;;;;;5053364;28;20419;-71
2022/09/14 13:23:50;;;;;;;3.47;3.17;;;17.30;99.90;;;;;;5089623;28;20478;-74
2022/09/14 13:26:24;;;;;;;3.43;2.93;;;17.30;99.90;;;;;;5102337;28;20463;-73
2022/09/14 13:29:00;;;;;;;3.70;2.77;;;17.30;99.90;;;;;;5114845;28;20477;-73
2022/09/14 13:31:35;;;;;;;2.77;2.37;;;17.30;99.90;;;;;;5102126;28;20432;-73